sensor_id;sensor_type;location;lat;lon;timestamp;pressure;altitude;pressure_sealevel;temperature;humidity
49341;BME280;35209;51.050;13.678;2023-05-16T00:01:45;99375.25;;;12.46;83.42
49341;BME280;35209;51.050;13.678;2023-05-16T00:06:47;99382.84;;;12.52;82.82
49341;BME280;35209;51.050;13.678;2023-05-16T00:11:49;99381.69;;;12.23;85.03
49341;BME280;35209;51.050;13.678;2023-05-16T00:16:55;99384.94;;;12.28;85.56
49341;BME280;35209;51.050;13.678;2023-05-16T00:21:59;99392.00;;;12.28;85.34
49341;BME280;35209;51.050;13.678;2023-05-16T00:27:01;99397.63;;;12.20;86.34
49341;BME280;35209;51.050;13.678;2023-05-16T00:32:04;99390.59;;;12.38;84.86
49341;BME280;35209;51.050;13.678;2023-05-16T00:37:09;99399.19;;;12.24;85.16
49341;BME280;35209;51.050;13.678;2023-05-16T00:42:11;99398.66;;;12.18;86.48
49341;BME280;35209;51.050;13.678;2023-05-16T00:47:13;99406.56;;;12.18;86.57
49341;BME280;35209;51.050;13.678;2023-05-16T00:52:15;99407.19;;;12.23;86.00
49341;BME280;35209;51.050;13.678;2023-05-16T00:57:17;99416.72;;;12.06;87.04
49341;BME280;35209;51.050;13.678;2023-05-16T01:02:19;99411.53;;;12.05;87.08
49341;BME280;35209;51.050;13.678;2023-05-16T01:07:21;99418.59;;;12.04;86.48
49341;BME280;35209;51.050;13.678;2023-05-16T01:12:43;99415.69;;;11.92;88.26
49341;BME280;35209;51.050;13.678;2023-05-16T01:17:59;99410.47;;;11.90;87.86
49341;BME280;35209;51.050;13.678;2023-05-16T01:23:30;99428.47;;;11.99;87.49
49341;BME280;35209;51.050;13.678;2023-05-16T01:28:35;99438.84;;;11.65;90.28
49341;BME280;35209;51.050;13.678;2023-05-16T01:33:37;99434.59;;;11.42;91.94
49341;BME280;35209;51.050;13.678;2023-05-16T01:43:59;99442.03;;;11.13;94.95
49341;BME280;35209;51.050;13.678;2023-05-16T01:49:15;99444.19;;;11.03;96.11
49341;BME280;35209;51.050;13.678;2023-05-16T01:54:24;99447.16;;;10.96;97.08
49341;BME280;35209;51.050;13.678;2023-05-16T01:59:27;99458.28;;;11.02;96.46
49341;BME280;35209;51.050;13.678;2023-05-16T02:04:29;99478.13;;;10.89;97.30
49341;BME280;35209;51.050;13.678;2023-05-16T02:09:30;99472.66;;;11.34;93.88
49341;BME280;35209;51.050;13.678;2023-05-16T02:14:33;99473.72;;;11.30;93.87
49341;BME280;35209;51.050;13.678;2023-05-16T02:19:34;99468.16;;;11.36;94.07
49341;BME280;35209;51.050;13.678;2023-05-16T02:24:36;99474.63;;;11.09;96.57
49341;BME280;35209;51.050;13.678;2023-05-16T02:29:38;99467.78;;;11.05;97.75
49341;BME280;35209;51.050;13.678;2023-05-16T02:34:40;99469.75;;;11.41;94.97
49341;BME280;35209;51.050;13.678;2023-05-16T02:39:43;99474.03;;;11.23;96.84
49341;BME280;35209;51.050;13.678;2023-05-16T02:44:44;99484.69;;;10.99;99.11
49341;BME280;35209;51.050;13.678;2023-05-16T02:49:46;99489.38;;;11.13;98.14
49341;BME280;35209;51.050;13.678;2023-05-16T02:54:48;99485.75;;;11.36;96.49
49341;BME280;35209;51.050;13.678;2023-05-16T03:00:10;99489.66;;;11.46;95.47
49341;BME280;35209;51.050;13.678;2023-05-16T03:05:12;99496.78;;;11.44;95.37
49341;BME280;35209;51.050;13.678;2023-05-16T03:10:14;99514.88;;;11.52;94.67
49341;BME280;35209;51.050;13.678;2023-05-16T03:15:15;99517.16;;;11.59;94.38
49341;BME280;35209;51.050;13.678;2023-05-16T03:20:17;99530.13;;;11.64;94.33
49341;BME280;35209;51.050;13.678;2023-05-16T03:25:19;99530.00;;;11.67;93.48
49341;BME280;35209;51.050;13.678;2023-05-16T03:30:21;99538.75;;;11.68;93.56
49341;BME280;35209;51.050;13.678;2023-05-16T03:35:23;99545.16;;;11.82;92.85
49341;BME280;35209;51.050;13.678;2023-05-16T03:40:45;99556.72;;;11.58;95.10
49341;BME280;35209;51.050;13.678;2023-05-16T03:45:47;99560.97;;;11.81;93.62
49341;BME280;35209;51.050;13.678;2023-05-16T03:50:48;99564.34;;;11.84;93.08
49341;BME280;35209;51.050;13.678;2023-05-16T03:55:51;99577.41;;;11.88;93.03
49341;BME280;35209;51.050;13.678;2023-05-16T04:00:53;99571.72;;;11.97;92.38
49341;BME280;35209;51.050;13.678;2023-05-16T04:05:55;99579.75;;;11.73;94.82
49341;BME280;35209;51.050;13.678;2023-05-16T04:10:57;99592.78;;;11.76;95.13
49341;BME280;35209;51.050;13.678;2023-05-16T04:15:59;99609.72;;;11.91;92.88
49341;BME280;35209;51.050;13.678;2023-05-16T04:21:01;99606.38;;;11.88;94.02
49341;BME280;35209;51.050;13.678;2023-05-16T04:26:03;99613.88;;;11.97;92.78
49341;BME280;35209;51.050;13.678;2023-05-16T04:31:05;99617.09;;;11.83;94.52
49341;BME280;35209;51.050;13.678;2023-05-16T04:36:07;99628.25;;;12.08;91.28
49341;BME280;35209;51.050;13.678;2023-05-16T04:41:08;99640.53;;;12.09;90.20
49341;BME280;35209;51.050;13.678;2023-05-16T04:46:10;99648.06;;;11.76;94.12
49341;BME280;35209;51.050;13.678;2023-05-16T04:51:12;99656.94;;;11.96;92.34
49341;BME280;35209;51.050;13.678;2023-05-16T04:56:13;99642.75;;;11.98;88.79
49341;BME280;35209;51.050;13.678;2023-05-16T05:01:15;99642.63;;;11.60;91.38
49341;BME280;35209;51.050;13.678;2023-05-16T05:06:17;99651.81;;;11.71;90.04
49341;BME280;35209;51.050;13.678;2023-05-16T05:11:18;99657.25;;;11.46;92.68
49341;BME280;35209;51.050;13.678;2023-05-16T05:16:20;99675.38;;;11.53;92.87
49341;BME280;35209;51.050;13.678;2023-05-16T05:21:22;99677.22;;;11.51;92.55
49341;BME280;35209;51.050;13.678;2023-05-16T05:26:25;99681.94;;;11.43;92.70
49341;BME280;35209;51.050;13.678;2023-05-16T05:31:28;99691.06;;;11.13;94.21
49341;BME280;35209;51.050;13.678;2023-05-16T05:36:30;99698.28;;;11.07;94.80
49341;BME280;35209;51.050;13.678;2023-05-16T05:41:36;99709.50;;;11.11;94.76
49341;BME280;35209;51.050;13.678;2023-05-16T05:46:44;99704.19;;;10.91;95.14
49341;BME280;35209;51.050;13.678;2023-05-16T05:51:55;99715.06;;;10.81;97.07
49341;BME280;35209;51.050;13.678;2023-05-16T05:56:56;99722.97;;;10.80;98.09
49341;BME280;35209;51.050;13.678;2023-05-16T06:02:02;99718.13;;;10.69;99.17
49341;BME280;35209;51.050;13.678;2023-05-16T06:07:04;99724.34;;;11.14;94.54
49341;BME280;35209;51.050;13.678;2023-05-16T06:12:06;99740.47;;;11.04;95.15
49341;BME280;35209;51.050;13.678;2023-05-16T06:17:16;99750.59;;;10.68;95.90
49341;BME280;35209;51.050;13.678;2023-05-16T06:22:20;99750.44;;;10.23;98.32
49341;BME280;35209;51.050;13.678;2023-05-16T06:27:53;99749.78;;;10.43;96.42
49341;BME280;35209;51.050;13.678;2023-05-16T06:33:00;99762.50;;;10.53;94.01
49341;BME280;35209;51.050;13.678;2023-05-16T06:38:02;99753.25;;;10.18;97.84
49341;BME280;35209;51.050;13.678;2023-05-16T06:43:04;99760.97;;;10.23;96.63
49341;BME280;35209;51.050;13.678;2023-05-16T06:48:06;99762.94;;;10.16;96.09
49341;BME280;35209;51.050;13.678;2023-05-16T06:53:08;99766.63;;;10.10;96.97
49341;BME280;35209;51.050;13.678;2023-05-16T06:58:12;99766.81;;;10.31;93.96
49341;BME280;35209;51.050;13.678;2023-05-16T07:03:14;99766.09;;;10.27;96.65
49341;BME280;35209;51.050;13.678;2023-05-16T07:08:16;99771.19;;;10.32;95.63
49341;BME280;35209;51.050;13.678;2023-05-16T07:13:17;99777.00;;;10.40;95.46
49341;BME280;35209;51.050;13.678;2023-05-16T07:18:19;99780.53;;;10.14;95.31
49341;BME280;35209;51.050;13.678;2023-05-16T07:23:21;99781.63;;;10.07;97.26
49341;BME280;35209;51.050;13.678;2023-05-16T07:28:23;99785.00;;;10.10;96.12
49341;BME280;35209;51.050;13.678;2023-05-16T07:33:24;99788.75;;;10.03;95.25
49341;BME280;35209;51.050;13.678;2023-05-16T07:38:27;99795.22;;;9.93;96.88
49341;BME280;35209;51.050;13.678;2023-05-16T07:43:29;99789.56;;;10.05;96.37
49341;BME280;35209;51.050;13.678;2023-05-16T07:48:31;99796.28;;;9.88;98.87
49341;BME280;35209;51.050;13.678;2023-05-16T07:53:33;99801.72;;;10.08;98.02
49341;BME280;35209;51.050;13.678;2023-05-16T07:58:35;99805.88;;;9.89;97.14
49341;BME280;35209;51.050;13.678;2023-05-16T08:03:36;99818.03;;;9.91;98.38
49341;BME280;35209;51.050;13.678;2023-05-16T08:08:39;99819.16;;;9.84;99.27
49341;BME280;35209;51.050;13.678;2023-05-16T08:13:40;99822.47;;;9.89;98.02
49341;BME280;35209;51.050;13.678;2023-05-16T08:18:42;99829.81;;;10.06;95.38
49341;BME280;35209;51.050;13.678;2023-05-16T08:23:46;99844.56;;;10.10;96.38
49341;BME280;35209;51.050;13.678;2023-05-16T08:28:48;99845.75;;;10.00;97.48
49341;BME280;35209;51.050;13.678;2023-05-16T08:33:50;99844.75;;;10.04;97.12
49341;BME280;35209;51.050;13.678;2023-05-16T08:38:52;99854.75;;;10.19;95.46
49341;BME280;35209;51.050;13.678;2023-05-16T08:43:53;99863.28;;;10.27;94.04
49341;BME280;35209;51.050;13.678;2023-05-16T08:48:58;99871.00;;;10.32;93.66
49341;BME280;35209;51.050;13.678;2023-05-16T08:54:10;99878.16;;;10.27;94.31
49341;BME280;35209;51.050;13.678;2023-05-16T08:59:12;99874.75;;;10.25;94.19
49341;BME280;35209;51.050;13.678;2023-05-16T09:04:14;99876.31;;;10.30;94.23
49341;BME280;35209;51.050;13.678;2023-05-16T09:09:16;99874.44;;;10.34;93.82
49341;BME280;35209;51.050;13.678;2023-05-16T09:14:18;99879.44;;;10.14;97.33
49341;BME280;35209;51.050;13.678;2023-05-16T09:19:21;99886.28;;;10.19;95.50
49341;BME280;35209;51.050;13.678;2023-05-16T09:24:24;99885.97;;;10.02;98.73
49341;BME280;35209;51.050;13.678;2023-05-16T09:29:26;99891.28;;;10.28;96.65
49341;BME280;35209;51.050;13.678;2023-05-16T09:34:28;99898.69;;;10.42;95.30
49341;BME280;35209;51.050;13.678;2023-05-16T09:39:30;99912.44;;;10.50;96.11
49341;BME280;35209;51.050;13.678;2023-05-16T09:44:32;99905.91;;;10.87;91.22
49341;BME280;35209;51.050;13.678;2023-05-16T09:49:36;99914.13;;;10.78;92.54
49341;BME280;35209;51.050;13.678;2023-05-16T09:54:38;99916.53;;;10.84;92.12
49341;BME280;35209;51.050;13.678;2023-05-16T09:59:39;99927.47;;;10.97;89.56
49341;BME280;35209;51.050;13.678;2023-05-16T10:04:41;99931.75;;;10.76;94.80
49341;BME280;35209;51.050;13.678;2023-05-16T10:09:43;99926.47;;;11.01;89.60
49341;BME280;35209;51.050;13.678;2023-05-16T10:14:46;99926.78;;;11.17;89.33
49341;BME280;35209;51.050;13.678;2023-05-16T10:19:52;99918.25;;;11.10;89.81
49341;BME280;35209;51.050;13.678;2023-05-16T10:25:03;99925.44;;;11.05;90.17
49341;BME280;35209;51.050;13.678;2023-05-16T10:30:09;99934.94;;;11.09;88.40
49341;BME280;35209;51.050;13.678;2023-05-16T10:35:11;99926.38;;;11.04;90.43
49341;BME280;35209;51.050;13.678;2023-05-16T10:40:13;99918.94;;;11.15;88.96
49341;BME280;35209;51.050;13.678;2023-05-16T10:45:18;99920.63;;;10.93;90.39
49341;BME280;35209;51.050;13.678;2023-05-16T10:55:35;99916.97;;;10.97;92.48
49341;BME280;35209;51.050;13.678;2023-05-16T11:00:38;99923.25;;;11.41;90.36
49341;BME280;35209;51.050;13.678;2023-05-16T11:05:40;99914.66;;;11.59;86.52
49341;BME280;35209;51.050;13.678;2023-05-16T11:10:42;99916.22;;;11.65;86.69
49341;BME280;35209;51.050;13.678;2023-05-16T11:15:44;99921.34;;;11.68;86.55
49341;BME280;35209;51.050;13.678;2023-05-16T11:20:50;99926.16;;;11.80;84.24
49341;BME280;35209;51.050;13.678;2023-05-16T11:25:54;99920.50;;;11.68;85.70
49341;BME280;35209;51.050;13.678;2023-05-16T11:30:57;99913.13;;;11.54;86.48
49341;BME280;35209;51.050;13.678;2023-05-16T11:36:07;99898.53;;;11.45;85.42
49341;BME280;35209;51.050;13.678;2023-05-16T11:41:13;99891.06;;;11.80;85.75
49341;BME280;35209;51.050;13.678;2023-05-16T11:46:18;99884.28;;;12.40;81.99
49341;BME280;35209;51.050;13.678;2023-05-16T11:51:20;99888.38;;;13.08;77.35
49341;BME280;35209;51.050;13.678;2023-05-16T11:56:22;99887.09;;;13.17;73.25
49341;BME280;35209;51.050;13.678;2023-05-16T12:01:24;99891.88;;;13.09;75.36
49341;BME280;35209;51.050;13.678;2023-05-16T12:06:27;99887.41;;;13.11;72.96
49341;BME280;35209;51.050;13.678;2023-05-16T12:11:31;99888.47;;;12.86;74.49
49341;BME280;35209;51.050;13.678;2023-05-16T12:16:34;99888.66;;;12.82;76.21
49341;BME280;35209;51.050;13.678;2023-05-16T12:21:37;99891.78;;;12.71;76.17
49341;BME280;35209;51.050;13.678;2023-05-16T12:26:40;99904.41;;;12.83;77.04
49341;BME280;35209;51.050;13.678;2023-05-16T12:31:42;99901.38;;;12.72;76.62
49341;BME280;35209;51.050;13.678;2023-05-16T12:36:44;99895.50;;;12.66;76.95
49341;BME280;35209;51.050;13.678;2023-05-16T12:41:46;99908.31;;;12.95;77.25
49341;BME280;35209;51.050;13.678;2023-05-16T12:46:50;99913.38;;;13.00;76.57
49341;BME280;35209;51.050;13.678;2023-05-16T12:51:54;99919.94;;;12.71;76.70
49341;BME280;35209;51.050;13.678;2023-05-16T12:56:58;99913.31;;;12.81;77.00
49341;BME280;35209;51.050;13.678;2023-05-16T13:02:00;99923.75;;;12.84;78.33
49341;BME280;35209;51.050;13.678;2023-05-16T13:07:01;99928.69;;;12.71;78.13
49341;BME280;35209;51.050;13.678;2023-05-16T13:12:05;99942.97;;;12.45;79.80
49341;BME280;35209;51.050;13.678;2023-05-16T13:17:07;99947.13;;;12.29;80.08
49341;BME280;35209;51.050;13.678;2023-05-16T13:22:08;99943.50;;;12.09;81.81
49341;BME280;35209;51.050;13.678;2023-05-16T13:27:14;99950.88;;;12.45;79.98
49341;BME280;35209;51.050;13.678;2023-05-16T13:32:16;99953.91;;;12.56;79.01
49341;BME280;35209;51.050;13.678;2023-05-16T13:37:19;99950.97;;;13.05;76.22
49341;BME280;35209;51.050;13.678;2023-05-16T13:42:27;99952.97;;;13.20;75.55
49341;BME280;35209;51.050;13.678;2023-05-16T13:47:55;99955.38;;;13.45;74.07
49341;BME280;35209;51.050;13.678;2023-05-16T13:52:57;99946.19;;;13.35;74.97
49341;BME280;35209;51.050;13.678;2023-05-16T13:57:58;99956.81;;;13.33;73.78
49341;BME280;35209;51.050;13.678;2023-05-16T14:03:06;99957.16;;;13.26;75.41
49341;BME280;35209;51.050;13.678;2023-05-16T14:08:12;99950.53;;;12.95;74.64
49341;BME280;35209;51.050;13.678;2023-05-16T14:13:22;99937.69;;;12.66;76.51
49341;BME280;35209;51.050;13.678;2023-05-16T14:19:17;99940.72;;;12.56;76.93
49341;BME280;35209;51.050;13.678;2023-05-16T14:25:27;99944.47;;;12.29;78.77
49341;BME280;35209;51.050;13.678;2023-05-16T14:30:29;99948.28;;;12.00;80.00
49341;BME280;35209;51.050;13.678;2023-05-16T14:35:32;99948.97;;;12.05;79.56
49341;BME280;35209;51.050;13.678;2023-05-16T14:40:33;99956.84;;;11.83;81.86
49341;BME280;35209;51.050;13.678;2023-05-16T14:45:36;99944.09;;;11.71;82.49
49341;BME280;35209;51.050;13.678;2023-05-16T14:50:38;99962.09;;;11.83;81.12
49341;BME280;35209;51.050;13.678;2023-05-16T14:55:40;99968.97;;;11.87;80.18
49341;BME280;35209;51.050;13.678;2023-05-16T15:00:42;99981.63;;;11.76;81.26
49341;BME280;35209;51.050;13.678;2023-05-16T15:05:44;99988.94;;;11.93;80.71
49341;BME280;35209;51.050;13.678;2023-05-16T15:10:46;99986.06;;;11.75;81.67
49341;BME280;35209;51.050;13.678;2023-05-16T15:15:47;99991.50;;;11.71;81.87
49341;BME280;35209;51.050;13.678;2023-05-16T15:20:50;99996.03;;;12.14;80.26
49341;BME280;35209;51.050;13.678;2023-05-16T15:25:53;99985.09;;;12.01;80.69
49341;BME280;35209;51.050;13.678;2023-05-16T15:30:55;99977.59;;;12.14;80.00
49341;BME280;35209;51.050;13.678;2023-05-16T15:35:56;99976.28;;;12.02;80.22
49341;BME280;35209;51.050;13.678;2023-05-16T15:40:59;99980.47;;;12.30;77.81
49341;BME280;35209;51.050;13.678;2023-05-16T15:46:21;99972.44;;;12.55;74.70
49341;BME280;35209;51.050;13.678;2023-05-16T15:51:23;99971.19;;;13.26;69.47
49341;BME280;35209;51.050;13.678;2023-05-16T15:56:25;99973.66;;;13.09;69.32
49341;BME280;35209;51.050;13.678;2023-05-16T16:01:28;99979.97;;;12.64;71.39
49341;BME280;35209;51.050;13.678;2023-05-16T16:06:30;99967.06;;;12.78;70.75
49341;BME280;35209;51.050;13.678;2023-05-16T16:11:32;99954.72;;;12.79;70.02
49341;BME280;35209;51.050;13.678;2023-05-16T16:16:34;99954.16;;;12.93;70.77
49341;BME280;35209;51.050;13.678;2023-05-16T16:21:37;99950.72;;;13.11;68.98
49341;BME280;35209;51.050;13.678;2023-05-16T16:26:41;99956.72;;;13.14;69.75
49341;BME280;35209;51.050;13.678;2023-05-16T16:31:43;99959.41;;;13.54;68.94
49341;BME280;35209;51.050;13.678;2023-05-16T16:36:45;99956.84;;;13.52;67.60
49341;BME280;35209;51.050;13.678;2023-05-16T16:41:48;99961.59;;;13.44;67.16
49341;BME280;35209;51.050;13.678;2023-05-16T16:46:50;99962.63;;;13.60;65.23
49341;BME280;35209;51.050;13.678;2023-05-16T16:51:52;99965.63;;;13.53;66.45
49341;BME280;35209;51.050;13.678;2023-05-16T16:56:54;99974.34;;;13.55;67.16
49341;BME280;35209;51.050;13.678;2023-05-16T17:01:57;99977.31;;;13.27;66.06
49341;BME280;35209;51.050;13.678;2023-05-16T17:06:59;99978.84;;;13.32;65.88
49341;BME280;35209;51.050;13.678;2023-05-16T17:12:02;99987.16;;;13.44;66.61
49341;BME280;35209;51.050;13.678;2023-05-16T17:17:08;99996.16;;;13.18;66.78
49341;BME280;35209;51.050;13.678;2023-05-16T17:22:10;99995.50;;;13.12;66.93
49341;BME280;35209;51.050;13.678;2023-05-16T17:27:12;100000.88;;;13.11;69.17
49341;BME280;35209;51.050;13.678;2023-05-16T17:32:14;99992.72;;;12.95;68.14
49341;BME280;35209;51.050;13.678;2023-05-16T17:37:18;99987.91;;;13.05;68.71
49341;BME280;35209;51.050;13.678;2023-05-16T17:42:20;100005.81;;;13.19;67.96
49341;BME280;35209;51.050;13.678;2023-05-16T17:47:22;99993.47;;;13.19;66.50
49341;BME280;35209;51.050;13.678;2023-05-16T17:52:24;99993.81;;;13.11;66.96
49341;BME280;35209;51.050;13.678;2023-05-16T17:57:27;99985.94;;;13.10;67.77
49341;BME280;35209;51.050;13.678;2023-05-16T18:02:29;99998.34;;;13.08;68.38
49341;BME280;35209;51.050;13.678;2023-05-16T18:07:31;100000.66;;;12.95;69.77
49341;BME280;35209;51.050;13.678;2023-05-16T18:12:33;99997.03;;;12.98;69.16
49341;BME280;35209;51.050;13.678;2023-05-16T18:17:36;99993.75;;;12.93;70.41
49341;BME280;35209;51.050;13.678;2023-05-16T18:22:38;100007.56;;;12.77;72.86
49341;BME280;35209;51.050;13.678;2023-05-16T18:27:40;100012.44;;;12.86;73.12
49341;BME280;35209;51.050;13.678;2023-05-16T18:32:42;100009.22;;;12.80;73.56
49341;BME280;35209;51.050;13.678;2023-05-16T18:37:44;100012.81;;;12.77;76.05
49341;BME280;35209;51.050;13.678;2023-05-16T18:42:46;100005.38;;;12.45;79.06
49341;BME280;35209;51.050;13.678;2023-05-16T18:47:48;100024.50;;;12.72;79.49
49341;BME280;35209;51.050;13.678;2023-05-16T18:52:50;100032.53;;;12.47;81.77
49341;BME280;35209;51.050;13.678;2023-05-16T18:57:52;100032.97;;;11.89;84.90
49341;BME280;35209;51.050;13.678;2023-05-16T19:02:55;100044.34;;;11.91;80.12
49341;BME280;35209;51.050;13.678;2023-05-16T19:07:56;100047.38;;;11.54;82.52
49341;BME280;35209;51.050;13.678;2023-05-16T19:12:58;100063.31;;;11.24;83.28
49341;BME280;35209;51.050;13.678;2023-05-16T19:18:07;100063.91;;;11.07;82.85
49341;BME280;35209;51.050;13.678;2023-05-16T19:23:09;100061.75;;;10.94;81.69
49341;BME280;35209;51.050;13.678;2023-05-16T19:28:11;100061.66;;;11.22;69.31
49341;BME280;35209;51.050;13.678;2023-05-16T19:33:12;100069.25;;;11.31;65.64
49341;BME280;35209;51.050;13.678;2023-05-16T19:38:15;100068.06;;;11.40;63.47
49341;BME280;35209;51.050;13.678;2023-05-16T19:43:20;100071.50;;;11.42;63.59
49341;BME280;35209;51.050;13.678;2023-05-16T19:48:21;100079.72;;;11.32;63.64
49341;BME280;35209;51.050;13.678;2023-05-16T19:53:23;100087.91;;;11.23;64.44
49341;BME280;35209;51.050;13.678;2023-05-16T19:58:26;100086.41;;;10.90;65.88
49341;BME280;35209;51.050;13.678;2023-05-16T20:03:28;100103.22;;;10.84;64.81
49341;BME280;35209;51.050;13.678;2023-05-16T20:08:30;100107.13;;;10.72;63.33
49341;BME280;35209;51.050;13.678;2023-05-16T20:13:32;100096.72;;;10.40;64.29
49341;BME280;35209;51.050;13.678;2023-05-16T20:18:37;100093.88;;;10.47;61.76
49341;BME280;35209;51.050;13.678;2023-05-16T20:23:59;100100.31;;;10.37;62.16
49341;BME280;35209;51.050;13.678;2023-05-16T20:29:01;100104.31;;;10.49;60.23
49341;BME280;35209;51.050;13.678;2023-05-16T20:34:02;100101.84;;;10.44;60.31
49341;BME280;35209;51.050;13.678;2023-05-16T20:39:05;100105.97;;;10.22;60.14
49341;BME280;35209;51.050;13.678;2023-05-16T20:44:07;100113.38;;;10.07;60.99
49341;BME280;35209;51.050;13.678;2023-05-16T20:49:09;100112.31;;;10.15;59.24
49341;BME280;35209;51.050;13.678;2023-05-16T20:54:11;100118.00;;;10.32;58.83
49341;BME280;35209;51.050;13.678;2023-05-16T20:59:13;100120.38;;;10.08;59.57
49341;BME280;35209;51.050;13.678;2023-05-16T21:04:15;100118.22;;;9.92;59.93
49341;BME280;35209;51.050;13.678;2023-05-16T21:09:17;100129.22;;;9.73;60.19
49341;BME280;35209;51.050;13.678;2023-05-16T21:14:19;100130.91;;;9.43;62.01
49341;BME280;35209;51.050;13.678;2023-05-16T21:19:21;100140.91;;;9.62;60.49
49341;BME280;35209;51.050;13.678;2023-05-16T21:24:22;100144.03;;;9.42;60.32
49341;BME280;35209;51.050;13.678;2023-05-16T21:29:24;100143.91;;;9.46;58.92
49341;BME280;35209;51.050;13.678;2023-05-16T21:34:26;100153.44;;;9.50;59.00
49341;BME280;35209;51.050;13.678;2023-05-16T21:39:28;100151.31;;;9.30;60.32
49341;BME280;35209;51.050;13.678;2023-05-16T21:44:29;100152.69;;;9.09;61.39
49341;BME280;35209;51.050;13.678;2023-05-16T21:49:32;100154.69;;;9.00;60.94
49341;BME280;35209;51.050;13.678;2023-05-16T21:54:35;100155.91;;;9.21;59.86
49341;BME280;35209;51.050;13.678;2023-05-16T21:59:36;100163.56;;;8.93;60.15
49341;BME280;35209;51.050;13.678;2023-05-16T22:04:38;100171.97;;;9.07;59.04
49341;BME280;35209;51.050;13.678;2023-05-16T22:09:40;100178.50;;;8.89;59.95
49341;BME280;35209;51.050;13.678;2023-05-16T22:14:42;100176.19;;;8.77;60.63
49341;BME280;35209;51.050;13.678;2023-05-16T22:19:44;100180.16;;;8.54;60.68
49341;BME280;35209;51.050;13.678;2023-05-16T22:24:46;100180.81;;;8.64;60.22
49341;BME280;35209;51.050;13.678;2023-05-16T22:29:48;100187.94;;;8.59;61.10
49341;BME280;35209;51.050;13.678;2023-05-16T22:34:50;100196.13;;;8.42;61.42
49341;BME280;35209;51.050;13.678;2023-05-16T22:39:53;100205.31;;;8.17;62.45
49341;BME280;35209;51.050;13.678;2023-05-16T22:44:56;100210.56;;;8.17;62.92
49341;BME280;35209;51.050;13.678;2023-05-16T22:49:58;100202.66;;;8.18;62.66
49341;BME280;35209;51.050;13.678;2023-05-16T22:55:00;100212.50;;;8.05;64.14
49341;BME280;35209;51.050;13.678;2023-05-16T23:00:03;100214.63;;;8.31;62.76
49341;BME280;35209;51.050;13.678;2023-05-16T23:05:06;100216.03;;;8.04;63.64
49341;BME280;35209;51.050;13.678;2023-05-16T23:10:08;100237.03;;;8.01;63.69
49341;BME280;35209;51.050;13.678;2023-05-16T23:15:10;100240.03;;;7.80;64.78
49341;BME280;35209;51.050;13.678;2023-05-16T23:20:12;100240.78;;;7.88;64.44
49341;BME280;35209;51.050;13.678;2023-05-16T23:25:13;100236.97;;;7.52;66.23
49341;BME280;35209;51.050;13.678;2023-05-16T23:30:15;100231.97;;;7.40;67.28
49341;BME280;35209;51.050;13.678;2023-05-16T23:35:17;100243.91;;;7.56;65.87
49341;BME280;35209;51.050;13.678;2023-05-16T23:40:19;100257.50;;;7.22;67.39
49341;BME280;35209;51.050;13.678;2023-05-16T23:45:20;100251.09;;;7.42;66.23
49341;BME280;35209;51.050;13.678;2023-05-16T23:50:22;100259.13;;;7.29;66.84
49341;BME280;35209;51.050;13.678;2023-05-16T23:55:24;100257.06;;;7.51;66.26
